BUTL weather

Butlerville Field
Butlerville, Arkansas, United States

Public forecast

Using degrees Fahrenheit for public forecast. Weather courtesy of forecast.io.

METAR (pilot weather report)

Closest report is Searcy Municipal Airport, 15.2 nm (28.1 km) NNE. Retrieved 2019/07/22 18:39 UTC (0 seconds ago):

KSRC 221839Z AUTO 19005KT 3SM +RA BR BKN030 BKN039 OVC050 25/25 A2996 RMK AO2 LTG DSNT W AND NW RAB23 P0037

TAF (pilot weather forecast)

Closest forecast is Little Rock Air Force Base, 16.0 nm (29.6 km) WSW. Retrieved 2019/07/22 15:48 UTC (2 hours ago):

TAF KLRF 221500Z 2215/2321 26008KT 9999 BKN120 QNH2993INS BECMG 2217/2218 27010G15KT 8000 -SHRA BKN040 OVC060 QNH2990INS TEMPO 2219/2224 28012G20KT 6000 -TSRA BKN030CB OVC040 BECMG 2301/2302 01008KT 8000 -SHRA BKN015 OVC030 QNH3000INS BECMG 2304/2305 04006KT 9999 NSW SCT045 BKN060 WS020/03035KT QNH3003INS BECMG 2314/2315 04012G20KT 9999 SKC QNH3006INS TX31/2221Z TN21/2312Z